Time;durP1;ratioP1;P1;durP2;ratioP2;P2;SDS_P1;SDS_P2;PMS_P1;PMS_P2;Temp;Humidity;BMP_temperature;BMP_pressure;BME280_temperature;BME280_humidity;BME280_pressure;Samples;Min_cycle;Max_cycle;Signal;HPM_P1;HPM_P2
2022/01/17 00:01:39;;;;;;;44.50;13.48;;;;;;;0.47;100.00;98576.44;4361187;32;20047;-78
2022/01/17 00:04:06;;;;;;;45.38;13.40;;;;;;;0.53;100.00;98539.38;4350941;32;20118;-77
2022/01/17 00:06:33;;;;;;;33.28;11.68;;;;;;;0.52;100.00;98526.31;4342291;33;20062;-77
2022/01/17 00:08:59;;;;;;;43.17;14.93;;;;;;;0.49;100.00;98537.31;4361729;32;20389;-76
2022/01/17 00:11:26;;;;;;;37.47;13.02;;;;;;;0.28;100.00;98496.66;4371909;32;20040;-75
2022/01/17 00:13:52;;;;;;;37.25;13.90;;;;;;;0.38;100.00;98492.84;4369845;32;20125;-75
2022/01/17 00:16:24;;;;;;;19.98;8.68;;;;;;;0.51;100.00;98503.50;4370421;32;20065;-76
2022/01/17 00:21:18;;;;;;;36.97;13.45;;;;;;;0.53;100.00;98475.78;4356567;32;20036;-76
2022/01/17 00:23:44;;;;;;;30.05;12.57;;;;;;;0.70;100.00;98508.06;4350843;32;20093;-77
2022/01/17 00:26:12;;;;;;;32.45;13.48;;;;;;;0.63;100.00;98512.50;4366905;32;20065;-77
2022/01/17 00:28:38;;;;;;;39.22;13.62;;;;;;;0.55;100.00;98451.75;4367450;32;20211;-76
2022/01/17 00:31:05;;;;;;;38.72;16.62;;;;;;;0.71;100.00;98461.19;4359115;32;20052;-77
2022/01/17 00:33:33;;;;;;;17.67;8.10;;;;;;;0.72;100.00;98452.22;4371072;32;20069;-77
2022/01/17 00:35:59;;;;;;;37.67;15.38;;;;;;;0.77;100.00;98464.88;4357879;32;20035;-77
2022/01/17 00:38:26;;;;;;;36.75;15.85;;;;;;;0.82;100.00;98494.25;4368896;32;20036;-77
2022/01/17 00:40:53;;;;;;;38.30;14.93;;;;;;;0.92;100.00;98440.84;4370651;32;20958;-77
2022/01/17 00:43:19;;;;;;;29.20;13.82;;;;;;;0.98;100.00;98446.16;4366057;32;20358;-77
2022/01/17 00:45:45;;;;;;;32.47;13.02;;;;;;;0.99;100.00;98449.59;4355764;32;20665;-77
2022/01/17 00:48:12;;;;;;;38.05;15.43;;;;;;;0.81;100.00;98423.69;4365661;32;20031;-76
2022/01/17 00:50:40;;;;;;;50.80;16.58;;;;;;;0.94;100.00;98421.03;4369597;32;20036;-77
2022/01/17 00:53:07;;;;;;;34.75;13.02;;;;;;;0.99;100.00;98446.94;4370608;32;20043;-77
2022/01/17 00:55:37;;;;;;;34.47;13.23;;;;;;;0.97;100.00;98439.19;4353314;32;20061;-77
2022/01/17 00:58:04;;;;;;;28.73;13.95;;;;;;;0.98;100.00;98432.88;4360252;32;20048;-76
2022/01/17 01:00:31;;;;;;;36.53;14.52;;;;;;;0.93;100.00;98422.09;4356013;32;20377;-77
2022/01/17 01:02:58;;;;;;;33.25;14.15;;;;;;;1.04;100.00;98461.25;4369185;32;20065;-77
2022/01/17 01:05:25;;;;;;;32.38;13.85;;;;;;;1.08;100.00;98446.56;4354174;32;20024;-77
2022/01/17 01:07:53;;;;;;;29.87;15.05;;;;;;;1.00;100.00;98449.41;4368111;32;20047;-77
2022/01/17 01:10:21;;;;;;;22.40;10.52;;;;;;;1.08;100.00;98429.84;4357106;32;20051;-76
2022/01/17 01:12:49;;;;;;;42.67;15.95;;;;;;;1.08;100.00;98446.56;4354290;32;20063;-77
2022/01/17 01:15:33;;;;;;;42.20;15.82;;;;;;;0.90;100.00;98428.59;4346909;32;20946;-76
2022/01/17 01:18:12;;;;;;;20.20;9.95;;;;;;;1.21;100.00;98450.25;4356334;32;20072;-75
2022/01/17 01:28:42;;;;;;;36.50;15.93;;;;;;;1.26;100.00;98421.25;4364245;32;20066;-76
2022/01/17 01:31:14;;;;;;;43.60;16.15;;;;;;;1.06;100.00;98353.16;4361595;32;20105;-76
2022/01/17 01:33:49;;;;;;;34.95;12.65;;;;;;;1.26;100.00;98362.91;4356908;32;20077;-76
2022/01/17 01:36:21;;;;;;;30.98;12.77;;;;;;;1.09;100.00;98358.03;4366675;32;20094;-76
2022/01/17 01:38:48;;;;;;;29.65;14.93;;;;;;;1.36;100.00;98389.84;4364844;32;20091;-76
2022/01/17 01:41:15;;;;;;;19.95;10.15;;;;;;;1.34;100.00;98397.22;4355816;32;20373;-77
2022/01/17 01:43:41;;;;;;;37.30;15.93;;;;;;;1.31;100.00;98371.09;4368248;32;20048;-77
2022/01/17 01:46:10;;;;;;;42.42;16.10;;;;;;;1.33;100.00;98368.25;4355276;32;20034;-78
2022/01/17 01:48:37;;;;;;;45.58;16.30;;;;;;;1.44;100.00;98360.44;4369014;32;20069;-77
2022/01/17 01:51:03;;;;;;;33.88;15.07;;;;;;;1.37;100.00;98333.13;4364026;32;20189;-77
2022/01/17 01:53:31;;;;;;;33.53;15.82;;;;;;;1.48;100.00;98349.44;4369651;32;20069;-77
2022/01/17 01:55:58;;;;;;;35.22;15.45;;;;;;;1.39;100.00;98373.53;4363461;32;20080;-78
2022/01/17 01:58:25;;;;;;;30.27;14.90;;;;;;;1.47;100.00;98390.22;4369356;32;20366;-76
2022/01/17 02:00:53;;;;;;;35.47;15.32;;;;;;;1.30;100.00;98312.94;4367151;32;20091;-77
2022/01/17 02:03:20;;;;;;;26.95;14.45;;;;;;;1.59;100.00;98333.66;4348381;32;20031;-76
2022/01/17 02:05:47;;;;;;;24.42;13.18;;;;;;;1.51;100.00;98370.25;4368626;32;20097;-77
2022/01/17 02:08:15;;;;;;;39.13;15.95;;;;;;;1.56;100.00;98357.16;4362264;32;20061;-77
2022/01/17 02:10:42;;;;;;;31.60;15.88;;;;;;;1.61;100.00;98320.19;4365692;32;20055;-77
2022/01/17 02:13:09;;;;;;;32.28;15.55;;;;;;;1.53;100.00;98312.47;4370321;32;20039;-77
2022/01/17 02:15:40;;;;;;;24.52;12.20;;;;;;;1.49;100.00;98293.50;4357570;32;20032;-77
2022/01/17 02:18:08;;;;;;;16.15;8.13;;;;;;;1.66;100.00;98319.56;4367518;32;20028;-77
2022/01/17 02:20:43;;;;;;;35.33;14.02;;;;;;;0.96;100.00;98229.97;4360169;32;20059;-77
2022/01/17 02:23:11;;;;;;;34.92;16.25;;;;;;;1.60;100.00;98343.28;4355387;33;20040;-77
2022/01/17 02:25:38;;;;;;;32.05;15.13;;;;;;;1.60;100.00;98306.12;4358700;32;20083;-78
2022/01/17 02:28:04;;;;;;;40.63;16.65;;;;;;;1.77;100.00;98295.88;4345164;32;20425;-78
2022/01/17 02:30:32;;;;;;;44.42;19.12;;;;;;;1.86;100.00;98304.38;4356691;32;20051;-77
2022/01/17 02:33:03;;;;;;;32.03;14.07;;;;;;;1.80;100.00;98347.69;4369768;32;20430;-77
2022/01/17 02:35:30;;;;;;;33.65;16.77;;;;;;;1.42;100.00;98236.97;4368589;32;20061;-78
2022/01/17 02:37:58;;;;;;;30.42;15.30;;;;;;;1.75;100.00;98334.25;4369034;32;20123;-78
2022/01/17 02:40:25;;;;;;;22.50;11.88;;;;;;;1.44;100.00;98291.47;4371550;32;20074;-78
2022/01/17 02:43:00;;;;;;;18.60;10.55;;;;;;;1.78;100.00;98324.00;4368123;32;20052;-77
2022/01/17 02:48:12;;;;;;;26.85;13.00;;;;;;;1.83;100.00;98283.56;4360021;32;20040;-77
2022/01/17 02:50:39;;;;;;;29.08;13.43;;;;;;;1.78;100.00;98248.87;4358486;32;20681;-78
2022/01/17 02:53:09;;;;;;;26.12;14.38;;;;;;;1.75;100.00;98259.94;4370917;32;20392;-77
2022/01/17 02:55:37;;;;;;;32.55;15.60;;;;;;;1.79;100.00;98275.22;4359799;32;20040;-78
2022/01/17 02:58:04;;;;;;;26.35;13.25;;;;;;;1.96;100.00;98237.56;4343475;32;20382;-78
2022/01/17 03:00:31;;;;;;;24.87;13.82;;;;;;;1.81;100.00;98254.56;4368867;32;20074;-77
2022/01/17 03:02:57;;;;;;;29.40;13.45;;;;;;;1.83;100.00;98257.03;4371323;32;20044;-77
2022/01/17 03:05:24;;;;;;;22.98;10.20;;;;;;;1.91;100.00;98255.97;4372964;32;20432;-78
2022/01/17 03:07:51;;;;;;;32.70;15.23;;;;;;;1.91;100.00;98242.69;4371240;32;20039;-78
2022/01/17 03:10:39;;;;;;;24.50;12.40;;;;;;;2.02;100.00;98239.34;4372662;32;20043;-77
2022/01/17 03:13:16;;;;;;;24.87;13.40;;;;;;;1.96;100.00;98245.50;4358683;32;20036;-77
2022/01/17 03:15:45;;;;;;;19.77;10.65;;;;;;;1.86;100.00;98194.75;4356106;32;20047;-77
2022/01/17 03:18:12;;;;;;;31.65;13.93;;;;;;;2.02;100.00;98207.50;4357838;32;20084;-77
2022/01/17 03:20:39;;;;;;;27.15;14.68;;;;;;;1.81;100.00;98185.56;4371784;32;20095;-78
2022/01/17 03:23:10;;;;;;;21.90;12.77;;;;;;;1.71;100.00;98171.13;4372103;32;20053;-78
2022/01/17 03:25:37;;;;;;;26.05;14.30;;;;;;;2.03;100.00;98246.31;4361069;32;20052;-79
2022/01/17 03:28:04;;;;;;;21.00;12.23;;;;;;;1.93;100.00;98177.75;4367094;32;20039;-78
2022/01/17 03:30:33;;;;;;;30.48;13.62;;;;;;;2.02;100.00;98212.81;4353531;32;20036;-78
2022/01/17 03:33:05;;;;;;;28.33;14.40;;;;;;;2.12;100.00;98202.53;4370930;32;20069;-77
2022/01/17 03:35:32;;;;;;;12.35;8.07;;;;;;;1.93;100.00;98198.16;4356478;32;20481;-78
2022/01/17 03:37:58;;;;;;;18.62;10.93;;;;;;;2.08;100.00;98198.66;4370958;32;20040;-78
2022/01/17 03:40:26;;;;;;;18.92;9.20;;;;;;;2.14;100.00;98200.47;4370277;32;20073;-78
2022/01/17 03:42:52;;;;;;;23.70;11.55;;;;;;;2.19;100.00;98186.53;4371950;32;20065;-77
2022/01/17 03:45:18;;;;;;;23.15;11.80;;;;;;;2.22;100.00;98201.22;4364830;32;20036;-77
2022/01/17 03:47:50;;;;;;;18.95;9.93;;;;;;;2.23;100.00;98224.91;4368937;32;20187;-77
2022/01/17 03:50:19;;;;;;;14.55;8.05;;;;;;;2.20;100.00;98220.03;4370983;32;20047;-77
2022/01/17 03:52:48;;;;;;;13.45;9.35;;;;;;;2.22;100.00;98170.19;4371018;32;20482;-77
2022/01/17 03:55:18;;;;;;;19.23;8.48;;;;;;;2.17;100.00;98162.84;4358366;32;20039;-77
2022/01/17 03:57:46;;;;;;;20.70;11.30;;;;;;;2.17;100.00;98162.84;4367243;32;20073;-77
2022/01/17 04:00:25;;;;;;;21.48;11.32;;;;;;;2.18;100.00;98164.47;4331121;32;20780;-77
2022/01/17 04:02:53;;;;;;;15.13;8.27;;;;;;;2.30;100.00;98179.72;4358340;32;20163;-77
2022/01/17 04:05:20;;;;;;;17.23;8.55;;;;;;;2.21;100.00;98141.19;4356520;32;20065;-79
2022/01/17 04:07:46;;;;;;;20.65;9.95;;;;;;;1.97;100.00;98130.31;4356789;32;20057;-77
2022/01/17 04:10:16;;;;;;;17.00;7.72;;;;;;;2.27;100.00;98161.56;4371777;32;20080;-77
2022/01/17 04:12:44;;;;;;;16.73;9.70;;;;;;;2.23;100.00;98160.34;4371043;32;20361;-77
2022/01/17 04:15:11;;;;;;;18.27;9.98;;;;;;;2.00;100.00;98098.03;4365306;32;20036;-78
2022/01/17 04:17:41;;;;;;;14.90;8.45;;;;;;;2.23;100.00;98144.41;4359553;32;20087;-77
2022/01/17 04:20:12;;;;;;;14.57;8.50;;;;;;;2.25;100.00;98142.34;4356988;32;20139;-76
2022/01/17 04:22:51;;;;;;;19.45;10.93;;;;;;;1.97;100.00;98090.50;4357823;32;20036;-77
2022/01/17 04:25:18;;;;;;;16.50;6.85;;;;;;;2.30;100.00;98129.25;4361849;32;20061;-77
2022/01/17 04:27:45;;;;;;;25.23;11.43;;;;;;;1.95;100.00;98074.78;4364692;32;20125;-77
2022/01/17 04:30:13;;;;;;;18.02;9.45;;;;;;;2.28;100.00;98088.78;4369414;32;20031;-76
2022/01/17 04:32:42;;;;;;;12.60;8.07;;;;;;;2.29;100.00;98079.81;4354110;32;20032;-76
2022/01/17 04:35:11;;;;;;;23.23;9.85;;;;;;;2.17;100.00;98077.88;4364104;32;20543;-77
2022/01/17 04:37:38;;;;;;;9.93;6.03;;;;;;;2.28;100.00;98094.09;4356615;32;20049;-77
2022/01/17 04:40:06;;;;;;;16.27;9.00;;;;;;;1.89;100.00;98059.72;4357702;32;20036;-77
2022/01/17 04:42:44;;;;;;;12.82;8.02;;;;;;;2.05;100.00;98010.56;4359732;32;20112;-76
2022/01/17 04:45:13;;;;;;;;;;;;;;;2.12;100.00;98077.72;4368060;32;20044;-77
2022/01/17 04:47:43;;;;;;;13.13;6.80;;;;;;;2.23;100.00;98043.50;4370599;32;19934;-78
2022/01/17 04:50:15;;;;;;;21.02;10.32;;;;;;;2.16;100.00;98086.84;4361329;32;20062;-77
2022/01/17 04:52:42;;;;;;;14.15;9.43;;;;;;;1.99;100.00;98069.84;4369368;32;20066;-78
2022/01/17 04:55:11;;;;;;;17.48;10.35;;;;;;;2.04;100.00;98051.41;4363098;32;20065;-77
2022/01/17 04:57:38;;;;;;;13.62;8.40;;;;;;;2.18;100.00;98074.16;4343497;33;20374;-76
2022/01/17 05:00:07;;;;;;;15.73;8.65;;;;;;;2.09;100.00;98086.13;4355835;32;20040;-77
2022/01/17 05:02:33;;;;;;;12.90;8.27;;;;;;;1.92;100.00;98042.56;4337808;33;20075;-77
2022/01/17 05:05:02;;;;;;;15.68;7.93;;;;;;;1.92;100.00;98039.91;4354127;32;20043;-77
2022/01/17 05:07:30;;;;;;;18.60;8.20;;;;;;;2.09;100.00;98048.94;4344259;32;20082;-77
2022/01/17 05:09:56;;;;;;;17.90;8.52;;;;;;;2.09;100.00;98038.31;4350876;32;20035;-77
2022/01/17 05:12:23;;;;;;;19.00;9.77;;;;;;;2.11;100.00;98014.19;4357352;32;20040;-77
2022/01/17 05:14:52;;;;;;;15.80;8.98;;;;;;;1.89;100.00;98005.81;4355660;32;20065;-77
2022/01/17 05:17:37;;;;;;;20.70;10.95;;;;;;;1.93;100.00;97967.19;4359133;32;20083;-77
2022/01/17 05:20:07;;;;;;;22.42;7.85;;;;;;;2.15;100.00;98024.16;4354199;32;20048;-76
2022/01/17 05:22:35;;;;;;;18.00;8.18;;;;;;;2.14;100.00;98057.06;4353599;32;20048;-78
2022/01/17 05:25:06;;;;;;;18.35;8.68;;;;;;;2.04;100.00;98032.81;4355997;32;20051;-77
2022/01/17 05:27:35;;;;;;;12.45;6.75;;;;;;;2.11;100.00;98020.31;4355174;32;20354;-76
2022/01/17 05:30:07;;;;;;;12.65;7.53;;;;;;;2.29;100.00;98039.97;4354078;32;20082;-78
2022/01/17 05:32:34;;;;;;;8.90;6.12;;;;;;;2.27;100.00;98002.19;4354733;32;20401;-76
2022/01/17 05:35:00;;;;;;;22.98;9.30;;;;;;;2.17;100.00;97982.25;4355878;32;20051;-78
2022/01/17 05:37:27;;;;;;;19.12;8.68;;;;;;;2.26;100.00;98011.19;4354778;32;20039;-76
2022/01/17 05:39:54;;;;;;;13.77;7.97;;;;;;;2.18;100.00;97925.44;4331211;33;20052;-77
2022/01/17 05:42:20;;;;;;;10.50;6.32;;;;;;;2.16;100.00;97970.00;4340597;33;20028;-77
2022/01/17 05:44:47;;;;;;;15.25;8.48;;;;;;;2.30;100.00;97985.81;4343793;32;20058;-77
2022/01/17 05:47:15;;;;;;;14.35;8.15;;;;;;;2.34;100.00;98013.53;4355327;32;20047;-77
2022/01/17 05:49:42;;;;;;;18.23;8.23;;;;;;;2.36;100.00;97968.94;4353925;32;20058;-76
2022/01/17 05:52:10;;;;;;;19.05;7.57;;;;;;;2.27;100.00;97980.94;4345594;32;20087;-77
2022/01/17 05:54:37;;;;;;;18.27;7.40;;;;;;;2.15;100.00;97915.28;4366052;32;20066;-78
2022/01/17 05:57:04;;;;;;;19.40;7.07;;;;;;;2.27;100.00;97949.88;4360037;32;20087;-75
2022/01/17 05:59:30;;;;;;;18.42;8.05;;;;;;;2.30;100.00;97922.84;4369569;32;20047;-81
2022/01/17 06:01:58;;;;;;;13.50;7.55;;;;;;;2.30;100.00;97904.25;4362018;32;20069;-77
2022/01/17 06:04:25;;;;;;;7.90;5.53;;;;;;;2.21;100.00;97907.44;4365885;32;20471;-76
2022/01/17 06:06:51;;;;;;;18.52;6.60;;;;;;;2.06;100.00;97905.97;4368458;32;20039;-78
2022/01/17 06:09:18;;;;;;;15.95;6.22;;;;;;;2.13;100.00;97877.50;4361894;32;20214;-76
2022/01/17 06:11:45;;;;;;;12.85;6.85;;;;;;;2.15;100.00;97870.12;4363907;32;20047;-76
2022/01/17 06:14:16;;;;;;;13.38;7.55;;;;;;;2.31;100.00;97913.03;4355299;32;20036;-75
2022/01/17 06:16:44;;;;;;;13.90;6.55;;;;;;;2.30;100.00;97916.75;4357239;32;20069;-77
2022/01/17 06:19:12;;;;;;;10.43;7.07;;;;;;;2.42;100.00;97875.06;4353937;32;20082;-77
2022/01/17 06:21:38;;;;;;;17.25;6.68;;;;;;;2.35;100.00;97892.97;4356946;32;20099;-76
2022/01/17 06:24:09;;;;;;;9.57;4.97;;;;;;;2.44;100.00;97943.94;4354860;32;20106;-76
2022/01/17 06:26:39;;;;;;;13.57;6.62;;;;;;;2.39;100.00;97894.12;4335756;32;20433;-76
2022/01/17 06:29:06;;;;;;;10.73;5.25;;;;;;;2.45;100.00;97871.97;4355591;32;20028;-77
2022/01/17 06:31:34;;;;;;;25.70;8.27;;;;;;;2.07;100.00;97785.44;4358031;32;20077;-76
2022/01/17 06:34:02;;;;;;;11.15;6.28;;;;;;;2.42;100.00;97851.16;4362850;32;20061;-77
2022/01/17 06:36:28;;;;;;;8.85;5.47;;;;;;;2.18;100.00;97827.16;4353639;33;20075;-76
2022/01/17 06:41:28;;;;;;;13.43;6.05;;;;;;;2.36;100.00;97805.06;4365341;32;20863;-76
2022/01/17 06:43:55;;;;;;;13.65;6.05;;;;;;;2.38;100.00;97855.31;4366698;32;20355;-78
2022/01/17 06:46:22;;;;;;;8.57;5.62;;;;;;;2.40;100.00;97818.72;4342161;33;20074;-76
2022/01/17 06:48:49;;;;;;;14.25;5.68;;;;;;;2.27;100.00;97895.94;4353185;32;20136;-76
2022/01/17 06:51:16;;;;;;;14.55;6.12;;;;;;;2.32;100.00;97803.09;4338696;32;20105;-78
2022/01/17 06:53:43;;;;;;;4.85;3.40;;;;;;;2.31;100.00;97854.59;4358771;32;20377;-77
2022/01/17 06:56:10;;;;;;;13.40;6.50;;;;;;;1.96;100.00;97741.06;4360319;32;20102;-78
2022/01/17 06:58:37;;;;;;;13.35;6.30;;;;;;;2.37;100.00;97784.63;4346051;32;20031;-77
2022/01/17 07:01:04;;;;;;;7.87;4.93;;;;;;;2.10;100.00;97739.06;4363023;32;20036;-77
2022/01/17 07:03:32;;;;;;;5.18;3.97;;;;;;;2.39;100.00;97750.66;4365814;32;20089;-78
2022/01/17 07:05:58;;;;;;;6.22;3.58;;;;;;;2.28;100.00;97738.16;4365754;32;20094;-76
2022/01/17 07:08:25;;;;;;;6.95;4.32;;;;;;;2.28;100.00;97775.34;4365292;32;20099;-77
2022/01/17 07:10:52;;;;;;;10.35;4.82;;;;;;;2.35;100.00;97800.00;4364553;32;20487;-78
2022/01/17 07:13:19;;;;;;;9.23;4.90;;;;;;;2.43;100.00;97782.91;4368359;32;20108;-78
2022/01/17 07:15:45;;;;;;;11.15;5.20;;;;;;;2.56;100.00;97784.56;4351222;32;20048;-78
2022/01/17 07:18:13;;;;;;;10.35;4.50;;;;;;;2.24;100.00;97758.25;4353531;33;20059;-77
2022/01/17 07:20:39;;;;;;;7.90;4.25;;;;;;;2.59;100.00;97789.41;4355788;32;20039;-76
2022/01/17 07:23:06;;;;;;;12.48;4.30;;;;;;;2.59;100.00;97824.78;4368447;32;20358;-77
2022/01/17 07:25:33;;;;;;;13.73;4.28;;;;;;;2.59;100.00;97802.72;4354919;32;20086;-76
2022/01/17 07:27:59;;;;;;;9.20;4.28;;;;;;;2.52;100.00;97785.00;4369020;32;20365;-78
2022/01/17 07:30:26;;;;;;;12.93;5.30;;;;;;;2.54;100.00;97812.16;4370789;32;20197;-77
2022/01/17 07:32:53;;;;;;;6.70;3.75;;;;;;;2.31;100.00;97700.53;4370652;32;20073;-76
2022/01/17 07:35:19;;;;;;;13.85;5.32;;;;;;;2.33;100.00;97693.13;4370120;32;20044;-76
2022/01/17 07:37:46;;;;;;;13.20;3.92;;;;;;;2.15;100.00;97655.03;4369269;32;20055;-76
2022/01/17 07:40:13;;;;;;;5.78;3.60;;;;;;;2.17;100.00;97679.50;4355169;32;20445;-77
2022/01/17 07:42:39;;;;;;;5.25;3.05;;;;;;;2.12;100.00;97735.16;4370281;32;20388;-76
2022/01/17 07:45:12;;;;;;;7.00;4.18;;;;;;;2.27;100.00;97704.69;4358678;32;20062;-76
2022/01/17 07:47:55;;;;;;;8.30;3.45;;;;;;;2.33;100.00;97706.41;4372023;32;20469;-76
2022/01/17 07:50:24;;;;;;;7.15;4.32;;;;;;;2.36;100.00;97666.09;4372240;32;20056;-76
2022/01/17 07:52:53;;;;;;;5.65;3.25;;;;;;;2.37;100.00;97683.69;4371485;32;20327;-76
2022/01/17 07:55:20;;;;;;;4.07;2.87;;;;;;;2.13;100.00;97659.72;4372421;32;20058;-76
2022/01/17 07:57:48;;;;;;;6.47;3.50;;;;;;;2.42;100.00;97685.66;4370962;32;20139;-75
2022/01/17 08:00:22;;;;;;;6.12;3.12;;;;;;;2.34;100.00;97633.66;4368639;32;20047;-75
2022/01/17 08:02:50;;;;;;;10.73;3.53;;;;;;;2.46;100.00;97650.41;4371490;32;20058;-75
2022/01/17 08:05:17;;;;;;;6.03;3.45;;;;;;;2.57;100.00;97624.06;4369547;32;20426;-76
2022/01/17 08:07:44;;;;;;;6.45;3.22;;;;;;;2.51;100.00;97647.88;4361809;32;20065;-76
2022/01/17 08:10:14;;;;;;;4.07;2.70;;;;;;;2.53;100.00;97667.03;4353213;32;20070;-77
2022/01/17 08:12:46;;;;;;;5.12;2.60;;;;;;;2.50;100.00;97640.94;4356443;32;20109;-75
2022/01/17 08:15:14;;;;;;;9.70;3.65;;;;;;;2.29;100.00;97613.09;4356128;32;20396;-76
2022/01/17 08:17:41;;;;;;;5.20;3.30;;;;;;;2.51;100.00;97620.50;4357059;32;20044;-75
2022/01/17 08:20:09;;;;;;;7.07;2.92;;;;;;;2.53;100.00;97613.09;4355289;32;20416;-75
2022/01/17 08:22:35;;;;;;;3.53;3.08;;;;;;;2.41;100.00;97578.59;4357051;32;20304;-76
2022/01/17 08:25:03;;;;;;;4.50;2.20;;;;;;;2.41;100.00;97609.63;4367704;32;20047;-76
2022/01/17 08:27:30;;;;;;;3.72;2.33;;;;;;;2.46;100.00;97639.78;4361556;32;20069;-77
2022/01/17 08:29:57;;;;;;;13.77;4.00;;;;;;;2.49;100.00;97628.72;4371305;32;20061;-76
2022/01/17 08:32:27;;;;;;;10.52;3.17;;;;;;;2.43;100.00;97613.69;4352502;32;20398;-78
2022/01/17 08:34:53;;;;;;;9.63;2.80;;;;;;;2.34;100.00;97583.19;4372075;32;20421;-78
2022/01/17 08:37:20;;;;;;;9.52;2.30;;;;;;;2.29;100.00;97646.84;4371549;32;20380;-78
2022/01/17 08:39:46;;;;;;;10.38;2.50;;;;;;;2.28;100.00;97663.78;4358453;32;20031;-78
2022/01/17 08:42:13;;;;;;;2.37;1.92;;;;;;;2.35;100.00;97582.16;4356733;32;20036;-78
2022/01/17 08:44:40;;;;;;;7.80;2.65;;;;;;;1.99;100.00;97545.00;4371091;32;20051;-77
2022/01/17 08:47:06;;;;;;;5.85;2.33;;;;;;;2.31;100.00;97583.66;4371199;32;20192;-78
2022/01/17 08:49:33;;;;;;;4.97;2.83;;;;;;;2.25;100.00;97564.16;4366999;32;20406;-77
2022/01/17 08:51:59;;;;;;;4.10;2.10;;;;;;;2.39;100.00;97532.03;4362927;32;20066;-77
2022/01/17 08:54:27;;;;;;;6.68;2.78;;;;;;;2.07;100.00;97535.84;4354459;32;20039;-77
2022/01/17 08:56:53;;;;;;;7.80;2.22;;;;;;;2.30;100.00;97528.94;4355634;32;20135;-80
2022/01/17 08:59:20;;;;;;;7.00;2.90;;;;;;;2.01;100.00;97520.88;4357408;32;20043;-79
2022/01/17 09:01:46;;;;;;;3.05;2.20;;;;;;;2.29;100.00;97509.50;4354409;32;20058;-77
2022/01/17 09:04:13;;;;;;;4.20;1.87;;;;;;;1.99;100.00;97477.78;4355815;32;20036;-77
2022/01/17 09:06:40;;;;;;;1.60;1.50;;;;;;;2.20;100.00;97536.66;4352433;32;20048;-78
2022/01/17 09:09:13;;;;;;;4.07;1.77;;;;;;;2.15;100.00;97538.19;4356142;32;20051;-78
2022/01/17 09:11:46;;;;;;;3.05;2.17;;;;;;;2.20;100.00;97520.72;4355996;32;20051;-77
2022/01/17 09:14:19;;;;;;;4.30;1.80;;;;;;;1.91;100.00;97557.78;4354555;32;20052;-77
2022/01/17 09:16:46;;;;;;;7.45;1.92;;;;;;;1.97;100.00;97493.16;4354965;32;20346;-77
2022/01/17 09:19:12;;;;;;;2.10;1.42;;;;;;;2.32;100.00;97521.53;4355172;32;20089;-78
2022/01/17 09:21:41;;;;;;;6.47;2.62;;;;;;;2.23;100.00;97531.69;4357225;32;20079;-75
2022/01/17 09:24:11;;;;;;;2.92;2.30;;;;;;;2.37;100.00;97524.28;4365265;32;20058;-77
2022/01/17 09:26:44;;;;;;;3.03;2.25;;;;;;;2.27;100.00;97503.63;4356259;32;20065;-86
2022/01/17 09:29:12;;;;;;;1.77;1.67;;;;;;;2.28;100.00;97486.66;4356989;32;20064;-74
2022/01/17 09:31:39;;;;;;;5.90;2.17;;;;;;;2.13;100.00;97492.44;4358074;32;20198;-75
2022/01/17 09:34:05;;;;;;;2.70;1.42;;;;;;;2.14;100.00;97451.59;4357412;32;20040;-74
2022/01/17 09:36:34;;;;;;;3.87;2.20;;;;;;;2.29;100.00;97537.94;4343525;32;20044;-74
2022/01/17 09:39:03;;;;;;;4.57;2.00;;;;;;;2.37;100.00;97518.97;4354012;32;20160;-80
2022/01/17 09:41:31;;;;;;;4.35;2.55;;;;;;;2.08;100.00;97431.28;4355944;32;20089;-74
2022/01/17 09:43:58;;;;;;;1.30;1.30;;;;;;;2.33;100.00;97497.38;4355491;32;20069;-76
2022/01/17 09:46:32;;;;;;;1.52;0.70;;;;;;;1.06;100.00;97955.47;4354532;32;20069;-76
2022/01/17 09:49:12;;;;;;;0.65;0.60;;;;;;;-0.31;100.00;97780.22;4353873;32;20178;-76
2022/01/17 09:54:31;;;;;;;0.40;0.40;;;;;;;-1.39;100.00;97784.09;4366978;32;20043;-76
2022/01/17 09:57:01;;;;;;;1.65;0.60;;;;;;;-1.85;100.00;97725.81;4370558;32;20101;-76
2022/01/17 09:59:30;;;;;;;0.93;0.60;;;;;;;-1.70;100.00;97777.59;4370505;32;20500;-76
2022/01/17 10:02:03;;;;;;;0.35;0.35;;;;;;;-2.42;100.00;97713.97;4368479;32;20035;-77
2022/01/17 10:04:31;;;;;;;0.90;0.65;;;;;;;-2.04;100.00;97797.84;4370500;32;20077;-76
2022/01/17 10:06:59;;;;;;;1.23;0.95;;;;;;;-2.25;100.00;97785.59;4370799;32;20061;-77
2022/01/17 10:09:27;;;;;;;1.02;0.90;;;;;;;-2.09;100.00;97834.53;4357191;32;20032;-77
2022/01/17 10:12:09;;;;;;;5.57;0.70;;;;;;;-2.02;100.00;97823.00;4369243;32;20035;-77
2022/01/17 10:14:59;;;;;;;2.80;1.25;;;;;;;-2.06;100.00;97810.41;4370591;32;20039;-77
2022/01/17 10:17:47;;;;;;;1.75;1.30;;;;;;;-2.27;100.00;97783.16;4370473;32;20043;-76
2022/01/17 10:20:18;;;;;;;2.30;1.37;;;;;;;-2.20;100.00;97770.81;4371049;32;20406;-77
2022/01/17 10:23:30;;;;;;;2.35;1.10;;;;;;;-1.86;100.00;97811.25;4372665;32;20131;-77
2022/01/17 10:26:09;;;;;;;3.40;1.92;;;;;;;-1.84;100.00;97806.59;4374071;32;20044;-78
2022/01/17 10:36:58;;;;;;;4.05;1.87;;;;;;;-1.65;100.00;97812.91;4368416;32;20425;-76
2022/01/17 10:39:25;;;;;;;3.85;1.90;;;;;;;-1.59;100.00;97815.78;4368717;32;20051;-76
2022/01/17 10:41:51;;;;;;;5.40;1.92;;;;;;;-1.59;100.00;97842.19;4369743;32;20039;-76
2022/01/17 10:44:38;;;;;;;3.37;1.87;;;;;;;-1.56;100.00;97842.59;4464148;27;20405;-78
2022/01/17 10:47:26;;;;;;;5.00;1.75;;;;;;;-1.55;100.00;97838.91;4368874;32;20073;-77
2022/01/17 10:49:56;;;;;;;3.15;1.30;;;;;;;-1.76;100.00;97831.19;4471346;27;20426;-74
2022/01/17 10:52:34;;;;;;;2.65;1.27;;;;;;;-1.46;100.00;97848.28;4351536;32;20077;-75
2022/01/17 10:55:09;;;;;;;2.72;1.52;;;;;;;-1.48;100.00;97810.72;4354163;32;20185;-74
2022/01/17 10:57:40;;;;;;;2.85;1.80;;;;;;;-1.65;100.00;97764.59;4353370;32;20084;-76
2022/01/17 11:00:10;;;;;;;4.55;1.15;;;;;;;-1.33;100.00;97854.59;4356683;32;20044;-74
2022/01/17 11:02:39;;;;;;;0.93;0.85;;;;;;;-1.57;100.00;97811.91;4358592;32;20088;-75
2022/01/17 11:05:07;;;;;;;7.80;1.95;;;;;;;-1.58;100.00;97842.00;4357538;32;20303;-79
2022/01/17 11:07:46;;;;;;;2.45;1.02;;;;;;;-1.30;100.00;97883.25;4357602;32;20044;-75
2022/01/17 11:10:27;;;;;;;3.33;1.08;;;;;;;-1.14;100.00;97882.84;4369167;32;20061;-76
2022/01/17 11:12:57;;;;;;;1.35;1.17;;;;;;;-1.13;100.00;97883.69;4351133;32;20061;-77
2022/01/17 11:15:26;;;;;;;1.65;1.33;;;;;;;-1.32;100.00;97848.31;4355182;32;20445;-76
2022/01/17 11:17:56;;;;;;;1.55;1.30;;;;;;;-1.19;100.00;97869.44;4370012;32;20057;-77
2022/01/17 11:20:28;;;;;;;0.57;0.57;;;;;;;-1.44;100.00;97834.09;4353162;32;20413;-82
2022/01/17 11:22:59;;;;;;;0.98;0.90;;;;;;;-1.22;100.00;97864.56;4354262;32;20142;-77
2022/01/17 11:25:32;;;;;;;1.62;1.15;;;;;;;-0.94;100.00;97900.56;4357131;32;20066;-77
2022/01/17 11:28:00;;;;;;;3.17;1.17;;;;;;;-0.39;100.00;97889.72;4355961;32;20052;-80
2022/01/17 11:30:28;;;;;;;3.65;1.62;;;;;;;-0.05;100.00;97859.50;4357343;32;20244;-75
2022/01/17 11:32:56;;;;;;;2.75;1.27;;;;;;;0.37;100.00;97872.34;4356415;32;20047;-76
2022/01/17 11:35:26;;;;;;;2.72;1.45;;;;;;;0.62;100.00;97880.31;4356918;32;20040;-76
2022/01/17 11:38:01;;;;;;;2.87;2.37;;;;;;;0.44;100.00;97877.59;4368523;32;20385;-77
2022/01/17 11:40:37;;;;;;;3.62;1.30;;;;;;;-0.18;100.00;97886.00;4358995;32;20202;-76
2022/01/17 11:43:36;;;;;;;3.75;1.98;;;;;;;-0.38;100.00;97875.47;4358627;32;20039;-77
2022/01/17 11:46:16;;;;;;;5.05;1.92;;;;;;;-0.31;100.00;97891.34;4358097;32;20061;-76
2022/01/17 11:48:50;;;;;;;15.68;2.20;;;;;;;0.12;100.00;97936.59;4355964;32;20048;-76
2022/01/17 11:51:18;;;;;;;2.60;1.87;;;;;;;0.15;100.00;97933.50;4356926;32;20047;-76
2022/01/17 11:53:46;;;;;;;1.00;0.95;;;;;;;0.01;100.00;97878.19;4356060;32;20058;-75
2022/01/17 11:56:41;;;;;;;3.08;1.30;;;;;;;0.07;100.00;97935.59;4355385;32;20048;-74
2022/01/17 11:59:34;;;;;;;0.68;0.68;;;;;;;0.20;100.00;97988.50;4355438;32;20048;-76
2022/01/17 12:02:10;;;;;;;2.65;1.17;;;;;;;0.25;100.00;97951.59;4357294;32;20036;-76